createdAt,value
2023-02-06T00:00:43.801Z,3.8
2023-02-06T00:05:39.104Z,3.8200000000000003
2023-02-06T00:10:35.288Z,4.4
2023-02-06T00:15:32.672Z,3.84
2023-02-06T00:20:28.840Z,3.94
2023-02-06T00:25:25.105Z,4.38
2023-02-06T00:30:20.355Z,2.76
2023-02-06T00:35:16.643Z,3.94
2023-02-06T00:40:12.895Z,3.5200000000000005
2023-02-06T00:45:09.139Z,4.14
2023-02-06T00:50:07.396Z,3.8600000000000003
2023-02-06T00:55:03.659Z,4.4
2023-02-06T00:59:59.937Z,3.3200000000000003
2023-02-06T01:04:56.189Z,3.94
2023-02-06T01:09:52.407Z,4.16
2023-02-06T01:14:47.691Z,3.34
2023-02-06T01:19:43.957Z,3.88
2023-02-06T01:24:40.220Z,4.8
2023-02-06T01:29:36.476Z,4.720000000000001
2023-02-06T01:34:32.729Z,4.499999999999999
2023-02-06T01:39:29.026Z,5.08
2023-02-06T01:44:34.231Z,4.44
2023-02-06T01:49:33.441Z,3.96
2023-02-06T01:54:31.771Z,4.64
2023-02-06T01:59:29.998Z,3.0999999999999996
2023-02-06T02:04:28.235Z,3.7600000000000002
2023-02-06T02:09:25.466Z,3.8200000000000003
2023-02-06T02:14:22.753Z,4
2023-02-06T02:19:31.981Z,3
2023-02-06T02:24:41.200Z,4.02
2023-02-06T02:29:51.437Z,3.54
2023-02-06T02:35:01.630Z,4.260000000000001
2023-02-06T02:40:07.991Z,4.12
2023-02-06T02:45:11.123Z,3.8200000000000003
2023-02-06T02:50:11.391Z,4.540000000000001
2023-02-06T02:55:13.587Z,4.880000000000001
2023-02-06T03:00:12.860Z,3.78
2023-02-06T03:05:14.128Z,2.94
2023-02-06T03:10:20.362Z,2.84
2023-02-06T03:15:24.596Z,3.66
2023-02-06T03:20:22.883Z,5.340000000000001
2023-02-06T03:25:25.092Z,3.96
2023-02-06T03:30:23.389Z,3.18
2023-02-06T03:35:26.578Z,3.9200000000000004
2023-02-06T03:40:22.838Z,3.2199999999999998
2023-02-06T03:45:24.093Z,3.7800000000000002
2023-02-06T03:50:22.354Z,3.84
2023-02-06T03:55:22.626Z,3.16
2023-02-06T04:00:19.856Z,3.5
2023-02-06T04:05:18.157Z,3.94
2023-02-06T04:10:14.373Z,4.660000000000001
2023-02-06T04:15:10.606Z,4.279999999999999
2023-02-06T04:20:06.913Z,3.04
2023-02-06T04:25:03.132Z,4.0200000000000005
2023-02-06T04:29:59.862Z,3.6
2023-02-06T04:34:55.713Z,3.6800000000000006
2023-02-06T04:39:51.880Z,5.18
2023-02-06T04:44:48.182Z,4.26
2023-02-06T04:49:44.470Z,4.26
2023-02-06T04:54:43.706Z,4.380000000000001
2023-02-06T04:59:39.980Z,4.66
2023-02-06T05:04:36.205Z,3.88
2023-02-06T05:09:32.464Z,4.06
2023-02-06T05:14:28.749Z,4.14
2023-02-06T05:19:24.983Z,5.1
2023-02-06T05:24:21.239Z,4.0600000000000005
2023-02-06T05:29:17.504Z,4.720000000000001
2023-02-06T05:34:13.769Z,4.68
2023-02-06T05:39:10.040Z,4.619999999999999
2023-02-06T05:44:06.261Z,4.4
2023-02-06T05:49:02.574Z,4.52
2023-02-06T05:53:58.813Z,6.18
2023-02-06T05:58:55.040Z,8.8
2023-02-06T06:03:51.444Z,6.859999999999999
2023-02-06T06:08:47.583Z,4.720000000000001
2023-02-06T06:13:43.824Z,5.74
2023-02-06T06:18:40.087Z,4.9399999999999995
2023-02-06T06:23:36.358Z,7.539999999999999
2023-02-06T06:28:32.614Z,5.3
2023-02-06T06:33:28.870Z,7.1
2023-02-06T06:38:25.139Z,6.2
2023-02-06T06:43:21.403Z,8.579999999999998
2023-02-06T06:48:17.635Z,8.940000000000001
2023-02-06T06:53:13.926Z,10.4
2023-02-06T06:58:10.179Z,10.42
2023-02-06T07:03:07.472Z,18.92
2023-02-06T07:08:03.681Z,6.94
2023-02-06T07:12:59.938Z,4.76
2023-02-06T07:17:56.193Z,5.279999999999999
2023-02-06T07:22:52.443Z,7.08
2023-02-06T07:27:48.801Z,5.760000000000001
2023-02-06T07:32:44.001Z,6.44
2023-02-06T07:42:44.482Z,5.94
2023-02-06T07:47:40.759Z,5.0600000000000005
2023-02-06T07:52:36.990Z,5.0600000000000005
2023-02-06T07:57:32.251Z,4.48
2023-02-06T08:02:28.498Z,5.76
2023-02-06T08:07:24.837Z,5.8
2023-02-06T08:12:20.044Z,5.68
2023-02-06T08:17:17.879Z,4.36
2023-02-06T08:22:15.563Z,5.3
2023-02-06T08:27:11.827Z,5.1
2023-02-06T08:32:08.061Z,4.5200000000000005
2023-02-06T08:37:04.346Z,10.34
2023-02-06T08:42:01.571Z,7.0200000000000005
2023-02-06T08:47:09.677Z,6.659999999999999
2023-02-06T08:52:01.097Z,6.639999999999999
2023-02-06T08:56:57.328Z,9.72
2023-02-06T09:01:53.583Z,5.5600000000000005
2023-02-06T09:06:49.902Z,5.46
2023-02-06T09:11:47.173Z,6.159999999999999
2023-02-06T09:16:43.384Z,5.24
2023-02-06T09:21:40.615Z,5.74
2023-02-06T09:26:44.838Z,15.959999999999999
2023-02-06T09:31:40.213Z,8.579999999999998
2023-02-06T09:36:37.420Z,4.24
2023-02-06T09:41:38.651Z,5.2
2023-02-06T09:46:36.926Z,4.12
2023-02-06T09:51:44.112Z,6.140000000000001
2023-02-06T09:56:52.365Z,6.7
2023-02-06T10:01:57.654Z,5.96
2023-02-06T10:06:58.855Z,5.32
2023-02-06T10:12:03.085Z,6.28
2023-02-06T10:17:09.369Z,8.7
2023-02-06T10:22:08.683Z,4.94
2023-02-06T10:27:09.815Z,6.08
2023-02-06T10:32:25.070Z,8.2
2023-02-06T10:37:35.272Z,6.28
2023-02-06T10:42:41.462Z,11.86
2023-02-06T10:47:45.777Z,4.960000000000001
2023-02-06T10:52:49.977Z,5.06
2023-02-06T10:57:48.236Z,7.360000000000001
2023-02-06T11:03:01.367Z,5.46
2023-02-06T11:07:58.705Z,6.24
2023-02-06T11:13:01.987Z,5.82
2023-02-06T11:17:59.225Z,5.7
2023-02-06T11:23:05.432Z,4.380000000000001
2023-02-06T11:28:02.730Z,6.5600000000000005
2023-02-06T11:38:16.175Z,5.4799999999999995
2023-02-06T11:43:17.420Z,4.46
2023-02-06T11:53:18.942Z,3.2600000000000002
2023-02-06T11:58:20.145Z,4.52
2023-02-06T12:03:27.381Z,3.9
2023-02-06T12:08:28.645Z,5.4
2023-02-06T12:13:28.911Z,5.46
2023-02-06T12:18:29.176Z,4.74
2023-02-06T12:23:30.367Z,6
2023-02-06T12:28:31.634Z,6.459999999999999
2023-02-06T12:33:36.904Z,5.500000000000001
2023-02-06T12:38:39.107Z,6.76
2023-02-06T12:43:39.379Z,6.859999999999999
2023-02-06T12:48:39.622Z,6.3
2023-02-06T12:53:40.861Z,5.04
2023-02-06T12:58:47.097Z,8.059999999999999
2023-02-06T13:03:50.371Z,6.359999999999999
2023-02-06T13:08:49.595Z,5.32
2023-02-06T13:13:59.854Z,5.92
2023-02-06T13:19:05.132Z,11.219999999999999
2023-02-06T13:24:11.280Z,10.580000000000002
2023-02-06T13:29:16.558Z,4.36
2023-02-06T13:34:16.786Z,7.040000000000001
2023-02-06T13:39:14.030Z,6.9399999999999995
2023-02-06T13:44:15.245Z,6.6
2023-02-06T13:49:31.473Z,6.44
2023-02-06T13:54:46.746Z,6.140000000000001
2023-02-06T13:59:48.943Z,7.18
2023-02-06T14:04:50.216Z,5.1
2023-02-06T14:10:01.399Z,6.56
2023-02-06T14:15:10.703Z,7.1800000000000015
2023-02-06T14:20:16.872Z,6.4
2023-02-06T14:25:30.127Z,9.6
2023-02-06T14:30:34.390Z,11.319999999999999
2023-02-06T14:35:45.562Z,8.28
2023-02-06T14:40:48.801Z,8.7
2023-02-06T14:46:06.287Z,10.4
2023-02-06T14:50:57.257Z,7.74
2023-02-06T14:56:08.559Z,6.339999999999999
2023-02-06T15:01:11.768Z,5.5
2023-02-06T15:06:09.015Z,7.4799999999999995
2023-02-06T15:11:07.246Z,6.460000000000001
2023-02-06T15:16:05.517Z,7.3
2023-02-06T15:21:05.770Z,14.1
2023-02-06T15:26:13.009Z,7.000000000000002
2023-02-06T15:31:16.317Z,9.9
2023-02-06T15:36:18.502Z,7.540000000000001
2023-02-06T15:41:16.739Z,10.08
2023-02-06T15:46:14.094Z,10.919999999999998
2023-02-06T15:51:18.249Z,12.04
2023-02-06T15:56:23.479Z,8.98
2023-02-06T16:01:24.781Z,10.64
2023-02-06T16:06:20.987Z,10.719999999999999
2023-02-06T16:11:20.247Z,9.080000000000002
2023-02-06T16:16:22.557Z,9.92
2023-02-06T16:21:22.765Z,12.319999999999999
2023-02-06T16:26:19.964Z,15.86
2023-02-06T16:31:21.350Z,19.759999999999998
2023-02-06T16:36:18.453Z,23.200000000000003
2023-02-06T16:41:24.741Z,17.54
2023-02-06T16:46:21.022Z,15.280000000000001
2023-02-06T16:51:19.221Z,14.4
2023-02-06T16:56:16.496Z,18.799999999999997
2023-02-06T17:01:16.779Z,20.8
2023-02-06T17:06:15.005Z,23.360000000000003
2023-02-06T17:11:11.236Z,18.639999999999997
2023-02-06T17:16:09.613Z,15.2
2023-02-06T17:21:06.760Z,16.259999999999998
2023-02-06T17:26:03.019Z,18.78
2023-02-06T17:30:59.428Z,17.46
2023-02-06T17:35:55.568Z,15.38
2023-02-06T17:40:52.782Z,12.679999999999998
2023-02-06T17:45:49.050Z,9.8
2023-02-06T17:50:46.324Z,11.1
2023-02-06T17:55:42.596Z,7.6
2023-02-06T18:00:40.812Z,7.56
2023-02-06T18:05:37.364Z,8.54
2023-02-06T18:10:33.343Z,8.16
2023-02-06T18:15:31.787Z,8.1
2023-02-06T18:20:27.877Z,7.76
2023-02-06T18:25:24.111Z,7.7
2023-02-06T18:30:20.426Z,9.32
2023-02-06T18:35:16.640Z,11.68
2023-02-06T18:40:12.898Z,11.52
2023-02-06T18:45:09.162Z,9.540000000000001
2023-02-06T18:50:05.482Z,9.78
2023-02-06T18:55:01.696Z,8
2023-02-06T18:59:57.920Z,12.24
2023-02-06T19:04:54.215Z,9.78
2023-02-06T19:09:50.483Z,8.8
2023-02-06T19:14:47.690Z,8.959999999999999
2023-02-06T19:19:43.966Z,9.059999999999999
2023-02-06T19:24:43.234Z,8.9
2023-02-06T19:29:40.498Z,10.3
2023-02-06T19:34:37.728Z,10.040000000000001
2023-02-06T19:39:34.979Z,10.120000000000001
2023-02-06T19:44:33.275Z,10.24
2023-02-06T19:49:29.532Z,11.26
2023-02-06T19:54:26.742Z,13.84
2023-02-06T19:59:27.014Z,16.380000000000003
2023-02-06T20:04:24.331Z,19.240000000000002
2023-02-06T20:09:21.574Z,16.900000000000002
2023-02-06T20:14:18.862Z,17.1
2023-02-06T20:19:15.023Z,16.14
2023-02-06T20:24:13.333Z,13.86
2023-02-06T20:29:14.555Z,12.059999999999999
2023-02-06T20:34:10.838Z,12.919999999999998
2023-02-06T20:39:08.063Z,16.419999999999998
2023-02-06T20:44:04.349Z,11.98
2023-02-06T20:49:01.602Z,9.14
2023-02-06T20:53:57.807Z,8.16
2023-02-06T20:58:54.076Z,8.879999999999999
2023-02-06T21:03:55.348Z,8.379999999999999
2023-02-06T21:08:51.649Z,7.62
2023-02-06T21:13:51.876Z,8.059999999999999
2023-02-06T21:18:52.081Z,8.5
2023-02-06T21:23:53.453Z,9.760000000000002
2023-02-06T21:28:49.631Z,9.16
2023-02-06T21:33:50.916Z,8.419999999999998
2023-02-06T21:38:47.171Z,8.819999999999999
2023-02-06T21:43:47.382Z,7.860000000000001
2023-02-06T21:48:43.611Z,8.540000000000001
2023-02-06T21:53:40.885Z,8.14
2023-02-06T21:58:36.208Z,8.34
2023-02-06T22:03:36.404Z,8.059999999999999
2023-02-06T22:08:32.670Z,7.38
2023-02-06T22:13:32.925Z,8.8
2023-02-06T22:18:30.186Z,6.88
2023-02-06T22:23:30.426Z,7.44
2023-02-06T22:28:30.661Z,6.640000000000001
2023-02-06T22:33:31.940Z,6.58
2023-02-06T22:38:32.151Z,7.18
2023-02-06T22:43:33.422Z,8.66
2023-02-06T22:48:33.676Z,8.74
2023-02-06T22:53:33.901Z,8.139999999999999
2023-02-06T22:58:34.185Z,9.540000000000001
2023-02-06T23:03:34.405Z,8.319999999999999
2023-02-06T23:08:35.622Z,10.5
2023-02-06T23:13:35.929Z,14.2
2023-02-06T23:18:36.157Z,9.1
2023-02-06T23:23:32.384Z,12.48
2023-02-06T23:28:28.671Z,12.22
2023-02-06T23:33:24.954Z,8.559999999999999
2023-02-06T23:38:21.180Z,7.88
2023-02-06T23:43:17.426Z,7.459999999999999
2023-02-06T23:48:13.696Z,6.8
2023-02-06T23:53:10.028Z,7.32
2023-02-06T23:58:06.213Z,7.640000000000001
